Time;durP1;ratioP1;P1;durP2;ratioP2;P2;SDS_P1;SDS_P2;PMS_P1;PMS_P2;Temp;Humidity;BMP_temperature;BMP_pressure;BME280_temperature;BME280_humidity;BME280_pressure;Samples;Min_cycle;Max_cycle;Signal;HPM_P1;HPM_P2
2022/12/27 00:02:57;;;;;;;;;;;;;;;9.13;73.14;100843.69;5381681;32;34850;-67
2022/12/27 00:05:59;;;;;;;;;;;;;;;9.73;72.42;100848.22;5367495;32;34863;-74
2022/12/27 00:09:02;;;;;;;;;;;;;;;8.39;76.45;100855.09;5385660;32;34889;-68
2022/12/27 00:12:04;;;;;;;;;;;;;;;8.05;80.05;100858.44;5379987;32;35360;-69
2022/12/27 00:15:06;;;;;;;;;;;;;;;8.51;78.53;100853.97;5396251;32;35097;-75
2022/12/27 00:18:08;;;;;;;;;;;;;;;8.53;78.96;100852.16;5375176;32;34864;-82
2022/12/27 00:21:10;;;;;;;;;;;;;;;8.78;77.17;100836.72;5378240;32;34887;-81
2022/12/27 00:24:12;;;;;;;;;;;;;;;8.68;77.54;100831.69;5377547;32;35132;-68
2022/12/27 00:27:14;;;;;;;;;;;;;;;8.65;77.35;100828.31;5369139;32;34780;-67
2022/12/27 00:30:16;;;;;;;;;;;;;;;8.55;77.43;100814.53;5393665;32;37060;-81
2022/12/27 00:33:18;;;;;;;;;;;;;;;8.71;76.82;100822.06;5395397;32;35042;-68
2022/12/27 00:36:21;;;;;;;;;;;;;;;9.03;76.52;100827.34;5412103;32;35338;-68
2022/12/27 00:39:23;;;;;;;;;;;;;;;8.86;76.43;100833.00;5400322;32;35018;-68
2022/12/27 00:42:25;;;;;;;;;;;;;;;9.28;75.67;100839.81;5414395;32;35341;-81
2022/12/27 00:45:27;;;;;;;;;;;;;;;9.11;76.42;100827.16;5399634;32;34766;-75
2022/12/27 00:48:29;;;;;;;;;;;;;;;9.37;74.97;100821.22;5402861;32;37567;-67
2022/12/27 00:51:31;;;;;;;;;;;;;;;9.46;74.67;100807.81;5366604;32;34681;-67
2022/12/27 00:54:32;;;;;;;;;;;;;;;9.72;73.46;100792.22;5396154;32;34599;-67
2022/12/27 00:57:34;;;;;;;;;;;;;;;9.84;72.36;100790.13;5405515;32;34031;-67
2022/12/27 01:00:36;;;;;;;;;;;;;;;10.24;71.27;100809.06;5359010;32;35141;-68
2022/12/27 01:03:38;;;;;;;;;;;;;;;10.24;71.07;100803.81;5391670;32;35306;-67
2022/12/27 01:06:40;;;;;;;;;;;;;;;10.24;71.06;100793.31;5374660;32;34941;-68
2022/12/27 01:09:42;;;;;;;;;;;;;;;10.17;71.63;100799.59;5369695;32;35492;-83
2022/12/27 01:12:44;;;;;;;;;;;;;;;10.04;71.69;100806.13;5383404;32;35282;-68
2022/12/27 01:15:46;;;;;;;;;;;;;;;9.81;72.04;100790.22;5373882;32;35367;-81
2022/12/27 01:18:48;;;;;;;;;;;;;;;10.13;71.89;100784.88;5381734;32;47041;-67
2022/12/27 01:21:49;;;;;;;;;;;;;;;10.54;70.21;100775.69;5394250;32;34993;-81
2022/12/27 01:24:51;;;;;;;;;;;;;;;10.70;69.13;100776.06;5408260;32;34921;-66
2022/12/27 01:27:53;;;;;;;;;;;;;;;10.07;71.85;100782.44;5396252;32;34346;-67
2022/12/27 01:30:55;;;;;;;;;;;;;;;10.19;71.20;100776.78;5365166;32;35298;-79
2022/12/27 01:33:58;;;;;;;;;;;;;;;10.38;71.14;100776.25;5387729;32;34972;-69
2022/12/27 01:36:59;;;;;;;;;;;;;;;10.80;69.84;100772.19;5354423;32;34508;-80
2022/12/27 01:40:01;;;;;;;;;;;;;;;10.36;71.25;100780.66;5396853;32;34599;-77
2022/12/27 01:43:03;;;;;;;;;;;;;;;10.89;69.94;100785.97;5380309;32;35741;-68
2022/12/27 01:46:05;;;;;;;;;;;;;;;11.13;68.81;100783.31;5380269;32;34727;-68
2022/12/27 01:49:07;;;;;;;;;;;;;;;11.46;67.34;100790.06;5365967;32;35107;-68
2022/12/27 01:52:09;;;;;;;;;;;;;;;11.42;66.61;100780.56;5363952;32;34399;-81
2022/12/27 01:55:22;;;;;;;;;;;;;;;11.21;67.61;100783.06;5392042;32;34918;-81
2022/12/27 01:58:24;;;;;;;;;;;;;;;11.31;67.61;100794.09;5375977;32;44446;-81
2022/12/27 02:01:27;;;;;;;;;;;;;;;11.38;66.76;100788.56;5403449;32;34183;-68
2022/12/27 02:04:29;;;;;;;;;;;;;;;11.23;67.26;100802.28;5356999;32;34353;-67
2022/12/27 02:07:34;;;;;;;;;;;;;;;11.41;66.98;100806.03;5389411;32;34088;-67
2022/12/27 02:10:36;;;;;;;;;;;;;;;11.48;66.63;100801.41;5344268;32;35209;-67
2022/12/27 02:13:39;;;;;;;;;;;;;;;11.57;65.77;100806.31;5370892;32;33893;-68
2022/12/27 02:16:41;;;;;;;;;;;;;;;11.48;66.28;100810.16;5397225;32;34966;-67
2022/12/27 02:19:49;;;;;;;;;;;;;;;11.57;65.53;100801.91;5382082;32;34930;-67
2022/12/27 02:26:39;;;;;;;;;;;;;;;11.29;67.09;100812.59;5388608;32;35832;-68
2022/12/27 02:29:55;;;;;;;;;;;;;;;11.21;67.40;100826.94;5381368;32;35703;-82
2022/12/27 02:33:05;;;;;;;;;;;;;;;11.46;67.06;100817.25;5389516;32;35251;-81
2022/12/27 02:36:08;;;;;;;;;;;;;;;11.47;66.83;100823.37;5360513;32;34456;-68
2022/12/27 02:39:10;;;;;;;;;;;;;;;11.50;66.92;100799.56;5382541;32;33813;-67
2022/12/27 02:59:32;;;;;;;;;;;;;;;11.95;64.17;100785.63;5387801;32;45668;-69
2022/12/27 03:06:40;;;;;;;;;;;;;;;11.87;64.62;100794.69;5326810;32;37979;-82
2022/12/27 03:17:04;;;;;;;;;;;;;;;11.75;64.38;100810.06;5374146;32;35301;-81
2022/12/27 03:26:49;;;;;;;;;;;;;;;11.80;64.18;100795.81;5394008;32;44439;-67
2022/12/27 03:33:11;;;;;;;;;;;;;;;12.06;63.69;100810.66;5368699;32;34880;-81
2022/12/27 03:39:35;;;;;;;;;;;;;;;11.33;63.87;100813.31;5380009;32;35123;-81
2022/12/27 03:49:24;;;;;;;;;;;;;;;11.90;62.07;100820.03;5379775;32;47005;-81
2022/12/27 03:52:27;;;;;;;;;;;;;;;11.00;64.79;100823.25;5355032;32;34931;-68
2022/12/27 03:55:29;;;;;;;;;;;;;;;11.80;62.52;100839.72;5355259;32;35560;-81
2022/12/27 03:58:34;;;;;;;;;;;;;;;11.76;62.74;100833.69;5370118;32;36346;-77
2022/12/27 04:01:36;;;;;;;;;;;;;;;10.75;65.71;100849.50;5361081;32;35667;-67
2022/12/27 04:04:38;;;;;;;;;;;;;;;11.37;64.40;100844.75;5353590;32;35190;-81
2022/12/27 04:34:42;;;;;;;;;;;;;;;10.71;65.97;100887.31;5383816;32;45153;-80
2022/12/27 04:37:44;;;;;;;;;;;;;;;10.15;67.28;100892.50;5378872;32;35060;-82
2022/12/27 04:57:39;;;;;;;;;;;;;;;10.46;65.99;100914.38;5358332;32;34538;-67
2022/12/27 05:04:01;;;;;;;;;;;;;;;10.59;65.98;100938.50;5356470;32;34719;-81
2022/12/27 05:13:58;;;;;;;;;;;;;;;10.64;65.66;100938.37;5371860;32;36129;-70
2022/12/27 05:13:58;;;;;;;;;;;;;;;10.87;64.27;100958.69;5347236;32;34697;-66
2022/12/27 05:17:00;;;;;;;;;;;;;;;11.10;63.78;100953.56;5391166;32;35166;-75
2022/12/27 05:20:03;;;;;;;;;;;;;;;10.78;64.67;100952.81;5376888;32;34320;-67
2022/12/27 05:26:26;;;;;;;;;;;;;;;11.47;62.25;100957.62;5378628;32;44724;-67
2022/12/27 05:29:34;;;;;;;;;;;;;;;10.77;64.08;100966.88;5374450;32;34660;-81
2022/12/27 05:32:36;;;;;;;;;;;;;;;10.94;63.55;100968.97;5367515;32;34384;-80
2022/12/27 05:35:38;;;;;;;;;;;;;;;10.81;64.21;100970.25;5354690;32;35107;-67
2022/12/27 05:38:40;;;;;;;;;;;;;;;10.92;63.32;100967.28;5378703;32;34615;-68
2022/12/27 05:41:42;;;;;;;;;;;;;;;11.17;62.88;100970.00;5349980;32;34350;-81
2022/12/27 05:44:44;;;;;;;;;;;;;;;11.02;62.71;100982.75;5367573;32;34364;-81
2022/12/27 05:47:46;;;;;;;;;;;;;;;11.48;61.59;100978.63;5376395;32;36711;-67
2022/12/27 05:50:48;;;;;;;;;;;;;;;11.59;61.03;100988.78;5351324;32;44606;-81
2022/12/27 05:53:50;;;;;;;;;;;;;;;11.66;60.22;100990.31;5390152;32;35076;-68
2022/12/27 05:56:51;;;;;;;;;;;;;;;11.61;60.34;101008.03;5357032;32;35532;-68
2022/12/27 05:59:53;;;;;;;;;;;;;;;11.69;60.25;101003.37;5353959;32;34701;-81
2022/12/27 06:02:55;;;;;;;;;;;;;;;11.38;61.33;101006.16;5363411;32;33389;-80
2022/12/27 06:05:58;;;;;;;;;;;;;;;11.81;59.70;101026.69;5368780;32;34320;-81
2022/12/27 06:09:00;;;;;;;;;;;;;;;11.66;59.85;101033.31;5369498;32;34501;-67
2022/12/27 06:12:02;;;;;;;;;;;;;;;10.71;62.50;101027.53;5357550;32;35083;-81
2022/12/27 06:15:05;;;;;;;;;;;;;;;11.52;60.60;101029.38;5361954;32;34823;-67
2022/12/27 06:18:06;;;;;;;;;;;;;;;11.69;59.99;101026.22;5352549;32;34304;-83
2022/12/27 06:21:10;;;;;;;;;;;;;;;11.74;59.29;101038.31;5377120;32;35380;-68
2022/12/27 06:24:11;;;;;;;;;;;;;;;11.17;60.76;101026.13;5356436;32;35469;-67
2022/12/27 06:27:13;;;;;;;;;;;;;;;10.91;61.75;101033.97;5376895;32;36045;-81
2022/12/27 06:30:15;;;;;;;;;;;;;;;11.10;60.43;101038.59;5354803;32;35725;-81
2022/12/27 06:33:17;;;;;;;;;;;;;;;10.51;61.99;101038.62;5367471;32;44711;-69
2022/12/27 06:36:23;;;;;;;;;;;;;;;10.89;61.28;101057.69;5361256;32;34946;-81
2022/12/27 06:39:25;;;;;;;;;;;;;;;11.17;60.01;101049.81;5361237;32;34404;-67
2022/12/27 06:42:28;;;;;;;;;;;;;;;11.63;58.58;101059.72;5362272;32;35625;-67
2022/12/27 06:45:30;;;;;;;;;;;;;;;10.79;60.46;101067.59;5362295;32;35412;-75
2022/12/27 06:48:32;;;;;;;;;;;;;;;11.48;59.00;101065.50;5379643;32;35261;-66
2022/12/27 06:51:34;;;;;;;;;;;;;;;11.59;58.03;101073.03;5348667;32;35102;-77
2022/12/27 06:54:36;;;;;;;;;;;;;;;11.06;59.02;101086.09;5347150;32;35116;-77
2022/12/27 06:57:38;;;;;;;;;;;;;;;10.87;59.51;101098.06;5386700;32;37565;-67
2022/12/27 07:00:40;;;;;;;;;;;;;;;10.97;60.04;101099.53;5380607;32;35445;-66
2022/12/27 07:03:42;;;;;;;;;;;;;;;11.17;59.13;101083.16;5385112;32;36000;-80
2022/12/27 07:06:44;;;;;;;;;;;;;;;11.22;59.40;101100.53;5383758;32;34438;-81
2022/12/27 07:09:46;;;;;;;;;;;;;;;10.91;59.91;101091.81;5383876;32;44710;-67
2022/12/27 07:12:48;;;;;;;;;;;;;;;11.18;58.91;101098.88;5370958;32;46037;-67
2022/12/27 07:15:50;;;;;;;;;;;;;;;11.13;58.71;101112.16;5354174;32;35040;-81
2022/12/27 07:18:52;;;;;;;;;;;;;;;10.96;58.83;101114.44;5375756;32;35589;-68
2022/12/27 07:21:54;;;;;;;;;;;;;;;10.41;59.59;101112.50;5354947;32;34691;-67
2022/12/27 07:24:56;;;;;;;;;;;;;;;10.91;58.53;101110.22;5368523;32;34345;-80
2022/12/27 07:27:58;;;;;;;;;;;;;;;11.02;58.11;101102.91;5363075;32;34194;-82
2022/12/27 07:31:04;;;;;;;;;;;;;;;10.80;58.37;101118.41;5358383;32;34823;-68
2022/12/27 07:34:06;;;;;;;;;;;;;;;10.92;57.76;101117.22;5350420;32;34822;-82
2022/12/27 07:37:08;;;;;;;;;;;;;;;10.57;57.90;101127.81;5361084;32;34810;-67
2022/12/27 07:40:10;;;;;;;;;;;;;;;10.69;57.25;101126.62;5369275;32;37673;-68
2022/12/27 07:43:12;;;;;;;;;;;;;;;10.43;57.33;101127.34;5350467;32;35344;-68
2022/12/27 07:46:21;;;;;;;;;;;;;;;10.50;57.25;101133.28;5377582;32;36203;-82
2022/12/27 07:49:22;;;;;;;;;;;;;;;10.21;57.12;101140.12;5371795;32;45588;-80
2022/12/27 07:52:25;;;;;;;;;;;;;;;10.44;56.48;101136.94;5341590;32;35175;-81
2022/12/27 07:55:27;;;;;;;;;;;;;;;10.67;56.10;101154.69;5365169;32;34263;-74
2022/12/27 07:58:29;;;;;;;;;;;;;;;10.50;55.77;101164.81;5351850;32;35624;-80
2022/12/27 08:02:02;;;;;;;;;;;;;;;10.88;54.82;101162.91;5361293;32;34684;-67
2022/12/27 08:04:55;;;;;;;;;;;;;;;10.89;54.75;101196.22;5368096;32;44868;-76
2022/12/27 08:08:00;;;;;;;;;;;;;;;10.62;55.42;101198.66;5359880;32;34232;-68
2022/12/27 08:11:02;;;;;;;;;;;;;;;10.36;56.01;101201.94;5374596;32;35110;-69
2022/12/27 08:14:06;;;;;;;;;;;;;;;10.88;55.32;101231.28;5366945;32;34291;-77
2022/12/27 08:17:21;;;;;;;;;;;;;;;10.67;55.82;101230.94;5396621;32;35329;-67
2022/12/27 08:20:23;;;;;;;;;;;;;;;10.57;56.31;101245.25;5382460;32;45885;-75
2022/12/27 08:23:25;;;;;;;;;;;;;;;10.92;55.72;101248.72;5396659;32;34187;-76
2022/12/27 08:26:27;;;;;;;;;;;;;;;10.66;55.95;101246.75;5382878;32;34362;-68
2022/12/27 08:29:29;;;;;;;;;;;;;;;10.16;58.20;101246.22;5376948;32;34268;-81
2022/12/27 08:32:31;;;;;;;;;;;;;;;10.45;57.17;101243.78;5390350;32;35422;-81
2022/12/27 08:35:37;;;;;;;;;;;;;;;10.30;57.69;101267.78;5377662;32;34772;-67
2022/12/27 08:38:55;;;;;;;;;;;;;;;10.19;58.56;101296.06;5378078;32;45411;-81
2022/12/27 08:41:57;;;;;;;;;;;;;;;9.33;60.87;101283.88;5369093;32;34752;-82
2022/12/27 08:44:59;;;;;;;;;;;;;;;9.46;60.83;101273.09;5367094;32;34333;-67
2022/12/27 08:48:01;;;;;;;;;;;;;;;9.44;61.15;101266.19;5342882;32;35607;-82
2022/12/27 08:51:04;;;;;;;;;;;;;;;9.68;60.48;101259.56;5368856;32;35822;-79
2022/12/27 08:54:13;;;;;;;;;;;;;;;9.40;60.70;101256.63;5379404;32;35310;-81
2022/12/27 08:57:15;;;;;;;;;;;;;;;9.47;60.51;101253.00;5379267;32;34901;-67
2022/12/27 09:00:17;;;;;;;;;;;;;;;9.40;60.80;101269.75;5381652;32;44441;-82
2022/12/27 09:03:20;;;;;;;;;;;;;;;9.32;60.44;101267.28;5365869;32;34892;-67
2022/12/27 09:06:22;;;;;;;;;;;;;;;9.39;59.80;101254.91;5380589;32;35134;-83
2022/12/27 09:09:24;;;;;;;;;;;;;;;9.46;59.79;101264.37;5384030;32;33512;-83
2022/12/27 09:12:26;;;;;;;;;;;;;;;9.28;59.16;101276.12;5381947;32;35287;-79
2022/12/27 09:15:28;;;;;;;;;;;;;;;9.40;59.02;101275.88;5364626;32;936257;-74
2022/12/27 09:18:30;;;;;;;;;;;;;;;9.28;58.43;101293.63;5380289;32;37463;-67
2022/12/27 09:21:32;;;;;;;;;;;;;;;9.52;57.66;101256.38;5396191;32;35531;-66
2022/12/27 09:24:34;;;;;;;;;;;;;;;9.56;56.73;101275.56;5366032;32;34345;-77
2022/12/27 09:27:37;;;;;;;;;;;;;;;9.65;56.13;101277.97;5391992;32;34210;-79
2022/12/27 09:30:38;;;;;;;;;;;;;;;9.11;57.28;101272.97;5372322;32;35864;-68
2022/12/27 09:33:41;;;;;;;;;;;;;;;9.40;56.40;101295.97;5380685;32;34336;-81
2022/12/27 09:36:43;;;;;;;;;;;;;;;9.63;55.48;101300.78;5394482;32;35743;-68
2022/12/27 09:39:45;;;;;;;;;;;;;;;9.61;54.98;101320.97;5379841;32;34825;-68
2022/12/27 09:42:52;;;;;;;;;;;;;;;9.30;54.92;101307.56;5393675;32;45333;-80
2022/12/27 09:46:16;;;;;;;;;;;;;;;9.34;54.11;101330.22;5367464;32;35063;-66
2022/12/27 09:49:37;;;;;;;;;;;;;;;9.18;54.23;101317.38;5364901;32;44775;-67
2022/12/27 09:52:41;;;;;;;;;;;;;;;9.37;52.65;101324.91;5354482;32;36383;-67
2022/12/27 09:55:44;;;;;;;;;;;;;;;9.17;49.62;101325.28;5357098;32;35125;-81
2022/12/27 09:58:47;;;;;;;;;;;;;;;9.06;49.67;101311.50;5374754;32;34765;-82
2022/12/27 10:01:49;;;;;;;;;;;;;;;9.09;49.54;101308.84;5349730;32;45343;-81
2022/12/27 10:04:51;;;;;;;;;;;;;;;8.82;50.28;101325.91;5368421;32;34397;-82
2022/12/27 10:08:26;;;;;;;;;;;;;;;8.72;51.28;101316.47;5382200;32;34689;-81
2022/12/27 10:11:38;;;;;;;;;;;;;;;8.85;51.43;101325.88;5376544;32;37483;-67
2022/12/27 10:14:49;;;;;;;;;;;;;;;9.24;50.44;101334.78;5378849;32;34874;-80
2022/12/27 10:17:58;;;;;;;;;;;;;;;9.26;50.93;101335.59;5366580;32;45166;-67
2022/12/27 10:21:00;;;;;;;;;;;;;;;9.01;50.87;101334.31;5380485;32;35514;-68
2022/12/27 10:24:09;;;;;;;;;;;;;;;8.69;52.39;101338.34;5366078;32;34816;-69
2022/12/27 10:27:15;;;;;;;;;;;;;;;8.74;52.41;101330.41;5334515;32;34903;-67
2022/12/27 10:30:18;;;;;;;;;;;;;;;8.73;51.80;101344.41;5383898;32;44535;-80
2022/12/27 10:33:40;;;;;;;;;;;;;;;8.87;50.69;101364.25;5338527;32;34531;-68
2022/12/27 10:36:43;;;;;;;;;;;;;;;8.52;48.86;101350.88;5351018;32;35449;-68
2022/12/27 10:39:45;;;;;;;;;;;;;;;8.56;48.75;101342.03;5376856;32;34858;-67
2022/12/27 10:43:01;;;;;;;;;;;;;;;8.49;49.53;101367.47;5371210;32;44760;-80
2022/12/27 10:46:13;;;;;;;;;;;;;;;8.53;48.92;101374.41;5364356;32;35667;-80
2022/12/27 10:49:21;;;;;;;;;;;;;;;8.68;46.14;101389.03;5339353;32;34779;-67
2022/12/27 10:52:23;;;;;;;;;;;;;;;8.22;45.65;101389.66;5363769;32;44935;-80
2022/12/27 10:55:43;;;;;;;;;;;;;;;8.57;44.33;101381.34;5359156;32;34912;-67
2022/12/27 10:58:48;;;;;;;;;;;;;;;8.40;44.30;101389.44;5363173;32;37140;-81
2022/12/27 11:01:59;;;;;;;;;;;;;;;8.43;44.08;101372.81;5377830;32;34947;-66
2022/12/27 11:05:01;;;;;;;;;;;;;;;8.62;42.98;101387.38;5355837;32;35614;-67
2022/12/27 11:08:19;;;;;;;;;;;;;;;8.30;43.24;101410.50;5370266;32;35082;-83
2022/12/27 11:11:22;;;;;;;;;;;;;;;8.54;44.00;101394.47;5363530;32;43866;-80
2022/12/27 11:14:24;;;;;;;;;;;;;;;8.75;44.08;101389.81;5380759;32;36990;-77
2022/12/27 11:17:28;;;;;;;;;;;;;;;8.78;43.67;101390.63;5396289;32;34592;-67
2022/12/27 11:20:30;;;;;;;;;;;;;;;8.76;44.85;101386.28;5382635;32;35427;-67
2022/12/27 11:23:35;;;;;;;;;;;;;;;8.39;46.11;101373.75;5376382;32;35189;-69
2022/12/27 11:26:57;;;;;;;;;;;;;;;8.87;45.81;101377.38;5334676;32;34738;-68
2022/12/27 11:29:59;;;;;;;;;;;;;;;8.86;45.99;101387.88;5333802;32;35414;-81
2022/12/27 11:33:02;;;;;;;;;;;;;;;9.06;45.93;101385.78;5352246;32;35164;-67
2022/12/27 11:36:04;;;;;;;;;;;;;;;8.97;46.42;101365.00;5343257;32;34294;-66
2022/12/27 11:39:06;;;;;;;;;;;;;;;9.52;45.99;101350.84;5356391;32;33943;-77
2022/12/27 11:42:27;;;;;;;;;;;;;;;9.83;44.74;101352.88;5356460;32;35181;-67
2022/12/27 11:45:34;;;;;;;;;;;;;;;9.34;46.28;101372.19;5363875;32;35449;-81
2022/12/27 11:48:37;;;;;;;;;;;;;;;8.82;47.17;101365.22;5355600;32;34646;-68
2022/12/27 11:51:39;;;;;;;;;;;;;;;8.85;47.21;101388.78;5337848;32;34520;-81
2022/12/27 11:55:00;;;;;;;;;;;;;;;9.61;45.12;101384.81;5365461;32;34857;-69
2022/12/27 11:58:09;;;;;;;;;;;;;;;9.53;45.11;101386.69;5351333;32;35528;-68
2022/12/27 12:01:26;;;;;;;;;;;;;;;9.58;45.20;101395.34;5354414;32;34258;-67
2022/12/27 12:04:39;;;;;;;;;;;;;;;10.13;43.77;101389.00;5360378;32;34994;-74
2022/12/27 12:07:53;;;;;;;;;;;;;;;10.47;42.54;101378.63;5357616;32;35623;-80
2022/12/27 12:11:15;;;;;;;;;;;;;;;10.72;41.22;101376.31;5383570;32;44916;-67
2022/12/27 12:14:31;;;;;;;;;;;;;;;10.75;41.17;101367.47;5368644;32;44541;-68
2022/12/27 12:17:33;;;;;;;;;;;;;;;10.64;40.54;101351.09;5368984;32;35168;-67
2022/12/27 12:20:52;;;;;;;;;;;;;;;10.49;40.70;101349.69;5396650;32;35504;-81
2022/12/27 12:23:57;;;;;;;;;;;;;;;11.57;38.40;101360.06;5355262;32;44569;-80
2022/12/27 12:27:17;;;;;;;;;;;;;;;12.00;38.78;101350.09;5362900;32;34369;-76
2022/12/27 12:30:38;;;;;;;;;;;;;;;11.81;37.88;101348.00;5376657;32;46196;-68
2022/12/27 12:33:51;;;;;;;;;;;;;;;11.86;37.52;101366.31;5358536;32;34807;-67
2022/12/27 12:37:05;;;;;;;;;;;;;;;10.43;40.38;101377.00;5364549;32;44671;-67
2022/12/27 12:40:10;;;;;;;;;;;;;;;11.37;37.57;101375.53;5355382;32;35669;-68
2022/12/27 12:43:33;;;;;;;;;;;;;;;11.75;36.81;101382.37;5375447;32;34698;-66
2022/12/27 12:46:35;;;;;;;;;;;;;;;12.57;35.32;101370.31;5350885;32;35895;-81
2022/12/27 12:49:44;;;;;;;;;;;;;;;10.36;38.19;101391.16;5367725;32;35842;-80
2022/12/27 12:52:51;;;;;;;;;;;;;;;9.89;39.76;101394.75;5372098;32;44575;-80
2022/12/27 12:55:58;;;;;;;;;;;;;;;12.18;35.88;101394.38;5371938;32;35361;-80
2022/12/27 12:59:06;;;;;;;;;;;;;;;12.09;36.03;101395.47;5393289;32;34576;-81
2022/12/27 13:02:21;;;;;;;;;;;;;;;13.66;33.08;101391.31;5368617;32;35470;-67
2022/12/27 13:05:42;;;;;;;;;;;;;;;11.78;35.53;101413.03;5365370;32;44752;-67
2022/12/27 13:08:46;;;;;;;;;;;;;;;9.92;38.79;101432.34;5376367;32;34919;-81
2022/12/27 13:12:02;;;;;;;;;;;;;;;8.95;41.50;101420.09;5341635;32;45562;-68
2022/12/27 13:15:25;;;;;;;;;;;;;;;8.55;42.22;101426.78;5374853;32;35430;-75
2022/12/27 13:18:30;;;;;;;;;;;;;;;8.46;42.79;101422.56;5381475;32;35597;-67
2022/12/27 13:21:38;;;;;;;;;;;;;;;8.53;42.12;101426.81;5367496;32;34130;-68
2022/12/27 13:25:07;;;;;;;;;;;;;;;8.74;41.60;101424.78;5373385;32;34201;-80
2022/12/27 13:28:12;;;;;;;;;;;;;;;8.75;41.46;101423.87;5343825;32;35806;-69
2022/12/27 13:31:24;;;;;;;;;;;;;;;7.76;43.68;101439.09;5391936;32;34516;-67
2022/12/27 13:34:38;;;;;;;;;;;;;;;7.77;43.64;101449.53;5349941;32;44677;-68
2022/12/27 13:37:58;;;;;;;;;;;;;;;8.25;42.81;101439.41;5352421;32;34709;-80
2022/12/27 13:41:10;;;;;;;;;;;;;;;7.52;44.06;101458.53;5373489;32;34354;-67
2022/12/27 13:44:18;;;;;;;;;;;;;;;7.30;44.77;101468.31;5346777;32;34483;-80
2022/12/27 13:47:40;;;;;;;;;;;;;;;7.59;43.92;101466.28;5363716;32;45019;-81
2022/12/27 13:50:45;;;;;;;;;;;;;;;7.29;44.33;101477.06;5384346;32;35702;-80
2022/12/27 13:53:49;;;;;;;;;;;;;;;7.74;44.01;101485.38;5363593;32;43637;-67
2022/12/27 13:56:54;;;;;;;;;;;;;;;8.21;42.85;101504.94;5375931;32;35650;-66
2022/12/27 14:00:00;;;;;;;;;;;;;;;8.28;43.18;101496.97;5360211;32;34212;-80
2022/12/27 14:03:20;;;;;;;;;;;;;;;9.05;41.44;101491.59;5370463;32;34390;-68
2022/12/27 14:06:41;;;;;;;;;;;;;;;9.64;39.88;101500.22;5383071;32;45572;-67
2022/12/27 14:10:04;;;;;;;;;;;;;;;9.14;40.71;101499.31;5359543;32;34870;-67
2022/12/27 14:13:07;;;;;;;;;;;;;;;11.52;36.36;101487.47;5347349;32;35648;-67
2022/12/27 14:16:12;;;;;;;;;;;;;;;10.15;38.02;101507.19;5362192;32;36105;-67
2022/12/27 14:19:49;;;;;;;;;;;;;;;9.07;40.42;101513.41;5360775;32;36007;-80
2022/12/27 14:23:02;;;;;;;;;;;;;;;7.58;43.54;101506.44;5346911;32;34903;-66
2022/12/27 14:26:10;;;;;;;;;;;;;;;7.38;44.59;101533.62;5370794;32;35319;-76
2022/12/27 14:29:15;;;;;;;;;;;;;;;7.08;45.63;101546.03;5397591;32;35589;-67
2022/12/27 14:32:22;;;;;;;;;;;;;;;7.50;44.96;101541.38;5364628;32;43613;-80
2022/12/27 14:35:43;;;;;;;;;;;;;;;7.97;43.70;101540.94;5382088;32;34381;-80
2022/12/27 14:38:57;;;;;;;;;;;;;;;8.04;43.47;101555.72;5393449;32;34899;-67
2022/12/27 14:42:05;;;;;;;;;;;;;;;7.75;43.45;101552.53;5380633;32;35490;-80
2022/12/27 14:45:18;;;;;;;;;;;;;;;7.75;43.59;101556.00;5396348;32;34878;-66
2022/12/27 14:48:59;;;;;;;;;;;;;;;7.68;43.90;101561.31;5374902;32;45365;-79
2022/12/27 14:52:01;;;;;;;;;;;;;;;7.64;43.59;101565.69;5297553;32;35169;-67
2022/12/27 14:55:12;;;;;;;;;;;;;;;7.27;44.41;101568.56;5324543;32;35324;-67
2022/12/27 14:58:26;;;;;;;;;;;;;;;7.43;43.65;101585.03;5352804;32;35076;-81
2022/12/27 15:01:47;;;;;;;;;;;;;;;7.29;44.53;101577.28;5349620;32;34154;-81
2022/12/27 15:05:08;;;;;;;;;;;;;;;7.35;44.56;101571.16;5377585;32;44750;-68
2022/12/27 15:08:12;;;;;;;;;;;;;;;8.28;42.52;101558.97;5354355;32;34973;-82
2022/12/27 15:11:17;;;;;;;;;;;;;;;7.65;43.76;101570.03;5375041;32;35584;-80
2022/12/27 15:14:22;;;;;;;;;;;;;;;7.42;44.12;101567.62;5376734;32;45209;-79
2022/12/27 15:17:24;;;;;;;;;;;;;;;7.71;43.16;101580.44;5374252;32;34313;-79
2022/12/27 15:20:26;;;;;;;;;;;;;;;8.01;42.59;101587.19;5357926;32;35726;-69
2022/12/27 15:23:27;;;;;;;;;;;;;;;7.46;43.13;101592.84;5351735;32;34796;-80
2022/12/27 15:26:50;;;;;;;;;;;;;;;6.96;44.62;101614.97;5364033;32;35087;-80
2022/12/27 15:30:01;;;;;;;;;;;;;;;7.76;43.24;101612.69;5355093;32;45569;-67
2022/12/27 15:33:11;;;;;;;;;;;;;;;7.54;43.13;101619.84;5361389;32;34926;-67
2022/12/27 15:36:17;;;;;;;;;;;;;;;8.07;41.75;101617.69;5354581;32;35427;-81
2022/12/27 15:39:48;;;;;;;;;;;;;;;8.33;41.50;101625.28;5346261;32;44552;-79
2022/12/27 15:43:02;;;;;;;;;;;;;;;8.12;41.57;101624.59;5372308;32;44893;-68
2022/12/27 15:46:17;;;;;;;;;;;;;;;7.96;41.80;101632.59;5351486;32;34371;-76
2022/12/27 15:49:27;;;;;;;;;;;;;;;6.56;44.57;101629.03;5368694;32;44685;-67
2022/12/27 15:52:32;;;;;;;;;;;;;;;7.11;43.68;101631.44;5341617;32;35319;-80
2022/12/27 15:55:50;;;;;;;;;;;;;;;6.95;44.21;101631.50;5356855;32;34774;-67
2022/12/27 15:59:11;;;;;;;;;;;;;;;6.82;44.14;101645.47;5382301;32;46028;-81
2022/12/27 16:02:16;;;;;;;;;;;;;;;6.88;43.56;101648.06;5356470;32;34812;-66
2022/12/27 16:05:18;;;;;;;;;;;;;;;7.20;43.33;101650.53;5373706;32;44609;-67
2022/12/27 16:08:24;;;;;;;;;;;;;;;6.52;44.17;101643.84;5362387;32;35140;-80
2022/12/27 16:11:46;;;;;;;;;;;;;;;6.67;44.07;101646.41;5355341;32;35475;-81
2022/12/27 16:14:48;;;;;;;;;;;;;;;6.36;44.83;101650.84;5384689;32;45363;-79
2022/12/27 16:17:53;;;;;;;;;;;;;;;6.47;44.72;101649.06;5375992;32;34969;-68
2022/12/27 16:20:55;;;;;;;;;;;;;;;5.79;46.31;101652.56;5393192;32;34566;-80
2022/12/27 16:24:00;;;;;;;;;;;;;;;5.80;46.13;101656.06;5382895;32;36779;-66
2022/12/27 16:27:03;;;;;;;;;;;;;;;6.38;45.05;101650.84;5378057;32;34720;-67
2022/12/27 16:30:05;;;;;;;;;;;;;;;6.13;45.25;101658.72;5397562;32;35654;-67
2022/12/27 16:33:26;;;;;;;;;;;;;;;6.03;45.92;101654.34;5357810;32;34712;-66
2022/12/27 16:36:31;;;;;;;;;;;;;;;6.28;45.08;101644.75;5390852;32;35518;-68
2022/12/27 16:39:33;;;;;;;;;;;;;;;5.71;46.82;101654.31;5364675;32;35438;-67
2022/12/27 16:43:01;;;;;;;;;;;;;;;5.55;46.77;101665.59;5379702;32;35341;-68
2022/12/27 16:46:20;;;;;;;;;;;;;;;5.50;47.14;101643.84;5378531;32;34896;-80
2022/12/27 16:49:38;;;;;;;;;;;;;;;5.37;47.16;101661.22;5349618;32;46163;-67
2022/12/27 16:52:58;;;;;;;;;;;;;;;5.57;46.46;101637.78;5352307;32;34724;-67
2022/12/27 16:56:06;;;;;;;;;;;;;;;5.89;45.64;101637.81;5368314;32;34467;-67
2022/12/27 16:59:34;;;;;;;;;;;;;;;5.42;46.29;101654.28;5355040;32;34260;-67
2022/12/27 17:02:39;;;;;;;;;;;;;;;5.57;46.33;101645.59;5372414;32;34247;-80
2022/12/27 17:05:42;;;;;;;;;;;;;;;5.37;46.74;101649.03;5350919;32;34941;-80
2022/12/27 17:09:07;;;;;;;;;;;;;;;5.79;46.40;101649.09;5343253;32;35480;-81
2022/12/27 17:12:13;;;;;;;;;;;;;;;5.75;46.10;101661.28;5364280;32;36120;-79
2022/12/27 17:15:15;;;;;;;;;;;;;;;5.49;46.81;101676.03;5355203;32;35607;-67
2022/12/27 17:18:43;;;;;;;;;;;;;;;6.44;44.93;101664.78;5383530;32;44559;-67
2022/12/27 17:21:45;;;;;;;;;;;;;;;5.48;46.95;101671.69;5359997;32;34056;-82
2022/12/27 17:24:47;;;;;;;;;;;;;;;6.26;45.78;101661.31;5383787;32;46858;-67
2022/12/27 17:27:53;;;;;;;;;;;;;;;6.54;44.74;101670.84;5388543;32;35129;-82
2022/12/27 17:30:58;;;;;;;;;;;;;;;5.83;46.77;101680.41;5377930;32;34297;-80
2022/12/27 17:34:03;;;;;;;;;;;;;;;5.61;47.16;101683.88;5393256;32;34860;-79
2022/12/27 17:37:20;;;;;;;;;;;;;;;5.87;47.10;101683.91;5375917;32;35098;-68
2022/12/27 17:40:29;;;;;;;;;;;;;;;6.39;45.56;101682.19;5389593;32;44600;-79
2022/12/27 17:47:04;;;;;;;;;;;;;;;6.07;46.36;101702.22;5357847;32;45006;-67
2022/12/27 17:50:17;;;;;;;;;;;;;;;6.12;46.74;101708.31;5373388;32;35640;-67
2022/12/27 18:00:20;;;;;;;;;;;;;;;7.02;44.52;101701.19;5392835;32;35454;-80
2022/12/27 18:03:22;;;;;;;;;;;;;;;6.55;45.28;101716.97;5361293;32;43327;-68
2022/12/27 18:06:24;;;;;;;;;;;;;;;6.28;45.48;101717.00;5369803;32;35438;-80